Time;durP1;ratioP1;P1;durP2;ratioP2;P2;SDS_P1;SDS_P2;PMS_P1;PMS_P2;Temp;Humidity;BMP_temperature;BMP_pressure;BME280_temperature;BME280_humidity;BME280_pressure;Samples;Min_cycle;Max_cycle;Signal;HPM_P1;HPM_P2
2020/12/10 00:01:05;;;;;;;16.67;13.30;;;3.10;78.80;;;;;;5001986;28;20202;-87
2020/12/10 00:03:30;;;;;;;16.57;13.20;;;2.80;78.40;;;;;;4986215;28;20182;-89
2020/12/10 00:05:56;;;;;;;15.47;12.57;;;2.80;78.60;;;;;;5001631;28;20216;-87
2020/12/10 00:08:22;;;;;;;17.63;14.17;;;2.80;79.70;;;;;;5002331;28;20179;-87
2020/12/10 00:10:47;;;;;;;14.33;12.17;;;2.80;79.70;;;;;;5002288;28;20678;-89
2020/12/10 00:13:13;;;;;;;17.83;12.73;;;2.90;79.70;;;;;;4985382;28;20190;-90
2020/12/10 00:15:39;;;;;;;15.33;13.60;;;3.00;78.70;;;;;;4985839;28;20186;-87
2020/12/10 00:18:04;;;;;;;16.93;13.43;;;3.00;78.80;;;;;;5003837;28;20269;-88
2020/12/10 00:20:30;;;;;;;16.27;13.70;;;3.10;77.20;;;;;;4986592;28;20189;-87
2020/12/10 00:22:56;;;;;;;15.07;11.87;;;3.10;77.10;;;;;;5003056;28;20186;-88
2020/12/10 00:25:21;;;;;;;15.67;11.83;;;3.10;78.60;;;;;;5001819;28;20222;-88
2020/12/10 00:27:47;;;;;;;16.87;13.27;;;3.10;77.90;;;;;;4986234;28;20201;-87
2020/12/10 00:30:13;;;;;;;14.83;12.47;;;3.10;78.30;;;;;;5003391;28;20252;-87
2020/12/10 00:32:39;;;;;;;15.13;12.47;;;3.10;77.70;;;;;;5002063;28;20206;-88
2020/12/10 00:35:07;;;;;;;15.37;11.77;;;3.00;78.40;;;;;;4986179;28;20268;-87
2020/12/10 00:37:34;;;;;;;15.17;12.23;;;2.90;78.60;;;;;;4999155;28;20221;-87
2020/12/10 00:40:01;;;;;;;14.87;12.97;;;3.00;78.40;;;;;;4984281;28;20190;-87
2020/12/10 00:42:27;;;;;;;17.17;13.70;;;3.20;77.00;;;;;;4983192;28;20547;-87
2020/12/10 00:44:52;;;;;;;16.43;12.60;;;3.10;76.70;;;;;;4982760;28;20282;-88
2020/12/10 00:47:19;;;;;;;18.07;13.97;;;3.00;77.50;;;;;;4963417;28;20230;-87
2020/12/10 00:49:46;;;;;;;19.50;13.17;;;2.90;78.20;;;;;;4980484;28;20254;-89
2020/12/10 00:52:12;;;;;;;17.07;13.00;;;2.70;79.20;;;;;;4963483;28;20206;-88
2020/12/10 00:54:38;;;;;;;16.57;13.47;;;2.60;79.70;;;;;;4980616;28;20361;-89
2020/12/10 00:57:09;;;;;;;14.63;12.17;;;2.70;79.50;;;;;;4982981;28;20187;-87
2020/12/10 00:59:34;;;;;;;16.30;13.33;;;2.80;79.90;;;;;;4984367;28;20650;-87
2020/12/10 01:02:00;;;;;;;15.90;12.30;;;2.80;78.70;;;;;;4982594;28;20257;-86
2020/12/10 01:04:25;;;;;;;16.50;12.67;;;3.00;78.10;;;;;;4966193;28;20222;-87
2020/12/10 01:06:51;;;;;;;15.23;11.87;;;3.10;78.20;;;;;;4983038;28;20229;-87
2020/12/10 01:09:17;;;;;;;15.57;11.63;;;3.10;78.70;;;;;;4982714;28;20217;-87
2020/12/10 01:11:42;;;;;;;16.30;12.53;;;3.20;78.50;;;;;;4983533;28;20325;-87
2020/12/10 01:14:08;;;;;;;16.63;13.57;;;3.10;78.40;;;;;;4966205;28;20194;-87
2020/12/10 01:16:35;;;;;;;16.43;13.00;;;3.00;77.80;;;;;;4984041;28;20187;-88
2020/12/10 01:19:00;;;;;;;20.00;14.73;;;2.70;78.80;;;;;;4982451;28;20190;-87
2020/12/10 01:21:34;;;;;;;17.33;13.00;;;2.60;79.00;;;;;;4982801;28;20257;-87
2020/12/10 01:24:01;;;;;;;19.13;13.53;;;2.70;80.10;;;;;;4982193;28;20635;-88
2020/12/10 01:26:32;;;;;;;18.03;13.93;;;2.60;79.50;;;;;;4983782;28;20199;-87
2020/12/10 01:28:58;;;;;;;15.13;12.97;;;2.80;79.10;;;;;;4967814;28;20171;-88
2020/12/10 01:31:24;;;;;;;18.77;12.97;;;2.80;79.30;;;;;;4989106;28;20290;-87
2020/12/10 01:33:50;;;;;;;14.43;12.00;;;2.90;79.60;;;;;;4984076;28;20333;-87
2020/12/10 01:36:34;;;;;;;15.53;13.23;;;2.90;79.30;;;;;;4983459;28;20281;-88
2020/12/10 01:39:00;;;;;;;15.17;12.53;;;3.10;77.30;;;;;;4982255;28;20682;-88
2020/12/10 01:41:32;;;;;;;15.50;13.03;;;3.20;77.00;;;;;;4982391;28;20214;-88
2020/12/10 01:44:06;;;;;;;15.33;12.23;;;3.20;77.20;;;;;;4983589;28;20186;-88
2020/12/10 01:46:33;;;;;;;17.17;12.80;;;3.30;77.50;;;;;;4981693;28;20218;-88
2020/12/10 01:49:01;;;;;;;15.60;12.23;;;3.30;77.90;;;;;;4984251;28;20190;-89
2020/12/10 01:51:27;;;;;;;13.90;11.40;;;3.30;78.30;;;;;;4982102;28;20704;-89
2020/12/10 01:53:53;;;;;;;14.80;12.03;;;3.30;79.00;;;;;;4966080;28;20187;-89
2020/12/10 01:56:18;;;;;;;16.07;13.10;;;3.20;78.10;;;;;;4983543;28;20657;-89
2020/12/10 01:58:44;;;;;;;14.47;11.53;;;3.20;78.40;;;;;;4993290;28;20180;-87
2020/12/10 02:01:11;;;;;;;13.47;11.50;;;3.30;78.40;;;;;;5010141;28;20275;-89
2020/12/10 02:03:36;;;;;;;14.73;11.33;;;3.30;78.00;;;;;;5010062;28;20208;-89
2020/12/10 02:06:02;;;;;;;15.07;12.47;;;3.40;77.90;;;;;;4986944;28;20195;-87
2020/12/10 02:08:27;;;;;;;13.30;11.50;;;3.20;78.30;;;;;;4999639;28;20175;-86
2020/12/10 02:10:53;;;;;;;16.10;13.20;;;3.40;78.20;;;;;;4991513;28;20210;-89
2020/12/10 02:13:19;;;;;;;13.00;11.47;;;3.40;77.00;;;;;;4982533;28;20246;-88
2020/12/10 02:15:48;;;;;;;15.30;12.30;;;3.40;78.40;;;;;;4981194;28;20184;-89
2020/12/10 02:18:14;;;;;;;15.17;11.93;;;3.50;77.70;;;;;;4982151;28;20186;-89
2020/12/10 02:20:40;;;;;;;15.83;11.90;;;3.40;78.40;;;;;;5000499;28;20350;-89
2020/12/10 02:23:07;;;;;;;12.57;11.23;;;3.50;78.40;;;;;;5001960;28;20210;-89
2020/12/10 02:25:33;;;;;;;13.90;11.87;;;3.60;77.10;;;;;;5002068;28;20175;-89
2020/12/10 02:28:10;;;;;;;15.20;12.50;;;3.60;76.50;;;;;;5000927;28;20205;-89
2020/12/10 02:30:37;;;;;;;13.40;11.60;;;3.60;77.10;;;;;;4984187;28;20186;-89
2020/12/10 02:33:05;;;;;;;14.00;12.00;;;3.70;77.30;;;;;;4981278;28;20171;-89
2020/12/10 02:35:32;;;;;;;12.53;10.97;;;3.60;77.60;;;;;;4983100;28;20223;-89
2020/12/10 02:38:00;;;;;;;15.97;13.00;;;3.50;78.10;;;;;;4982342;28;20278;-91
2020/12/10 02:40:28;;;;;;;14.20;12.27;;;3.60;77.10;;;;;;4982367;28;20186;-88
2020/12/10 02:42:55;;;;;;;13.83;11.33;;;3.80;76.90;;;;;;4983758;28;20225;-90
2020/12/10 02:45:21;;;;;;;13.40;10.83;;;3.70;78.10;;;;;;5000998;28;20203;-88
2020/12/10 02:47:47;;;;;;;14.10;11.37;;;3.60;79.10;;;;;;5002223;28;20203;-86
2020/12/10 02:50:13;;;;;;;15.17;11.97;;;3.50;79.40;;;;;;5001679;28;20193;-89
2020/12/10 02:52:39;;;;;;;14.43;11.90;;;3.40;80.30;;;;;;5002240;28;20206;-88
2020/12/10 02:55:05;;;;;;;12.03;10.77;;;3.40;79.50;;;;;;4984320;28;20539;-89
2020/12/10 02:57:30;;;;;;;14.93;11.40;;;3.40;79.50;;;;;;5001381;28;20210;-90
2020/12/10 02:59:56;;;;;;;13.83;11.57;;;3.40;79.20;;;;;;5003214;28;20226;-91
2020/12/10 03:02:22;;;;;;;13.87;11.63;;;3.40;80.00;;;;;;5003318;28;20202;-89
2020/12/10 03:04:48;;;;;;;15.00;12.27;;;3.40;80.00;;;;;;5003434;28;20182;-89
2020/12/10 03:07:14;;;;;;;13.93;12.50;;;3.40;79.50;;;;;;5002288;28;20217;-90
2020/12/10 03:09:43;;;;;;;15.07;11.20;;;3.50;79.20;;;;;;5001636;28;20344;-91
2020/12/10 03:12:10;;;;;;;14.73;11.20;;;3.40;80.00;;;;;;5002591;28;20564;-89
2020/12/10 03:14:36;;;;;;;14.80;12.50;;;3.50;79.60;;;;;;5001240;28;20178;-89
2020/12/10 03:17:03;;;;;;;14.93;11.43;;;3.40;79.60;;;;;;5000005;28;20190;-91
2020/12/10 03:19:29;;;;;;;15.03;12.30;;;3.40;79.70;;;;;;5001774;28;20548;-88
2020/12/10 03:21:54;;;;;;;15.33;13.07;;;3.30;79.30;;;;;;5000811;28;20198;-90
2020/12/10 03:24:20;;;;;;;14.37;12.33;;;3.40;79.20;;;;;;4984439;28;20199;-88
2020/12/10 03:26:46;;;;;;;13.93;11.93;;;3.30;79.70;;;;;;5001906;28;20676;-89
2020/12/10 03:29:11;;;;;;;14.60;12.37;;;3.40;78.90;;;;;;5001805;28;20186;-88
2020/12/10 03:31:37;;;;;;;13.13;11.70;;;3.50;78.60;;;;;;4985800;28;20245;-89
2020/12/10 03:34:04;;;;;;;15.20;12.20;;;3.50;79.20;;;;;;5002988;28;20195;-90
2020/12/10 03:36:47;;;;;;;15.10;12.17;;;3.60;79.10;;;;;;4986065;28;20264;-88
2020/12/10 03:39:12;;;;;;;12.73;11.40;;;3.50;79.20;;;;;;5002147;28;20182;-90
2020/12/10 03:41:38;;;;;;;14.60;11.70;;;3.50;79.60;;;;;;4999115;28;20213;-90
2020/12/10 03:44:04;;;;;;;13.50;12.10;;;3.60;79.20;;;;;;5000650;28;20194;-90
2020/12/10 03:46:30;;;;;;;14.00;12.40;;;3.60;78.60;;;;;;5000854;28;20569;-88
2020/12/10 03:48:56;;;;;;;14.23;12.70;;;3.60;78.50;;;;;;4993124;28;20234;-88
2020/12/10 03:51:21;;;;;;;13.63;12.07;;;3.60;77.90;;;;;;4963521;28;20229;-90
2020/12/10 03:53:47;;;;;;;12.60;11.30;;;3.60;78.10;;;;;;4980424;28;20183;-90
2020/12/10 03:56:12;;;;;;;14.97;12.00;;;3.60;78.00;;;;;;4980639;28;20194;-90
2020/12/10 03:58:38;;;;;;;14.03;12.53;;;3.70;77.60;;;;;;4980743;28;20198;-89
2020/12/10 04:01:04;;;;;;;14.27;12.00;;;3.60;78.10;;;;;;4996665;28;20245;-90
2020/12/10 04:03:31;;;;;;;14.63;12.87;;;3.50;78.40;;;;;;4969079;28;20220;-89
2020/12/10 04:05:56;;;;;;;14.77;12.80;;;3.50;78.80;;;;;;5003396;28;20237;-89
2020/12/10 04:08:22;;;;;;;15.10;12.90;;;3.40;78.50;;;;;;5002710;28;20182;-91
2020/12/10 04:10:47;;;;;;;13.10;11.77;;;3.40;78.90;;;;;;5002568;28;20194;-89
2020/12/10 04:13:13;;;;;;;13.60;11.73;;;3.30;79.10;;;;;;5002899;28;20186;-89
2020/12/10 04:15:39;;;;;;;12.77;11.27;;;3.40;79.00;;;;;;5002130;28;20206;-90
2020/12/10 04:18:06;;;;;;;11.53;10.33;;;3.50;79.60;;;;;;5002893;28;20542;-89
2020/12/10 04:20:32;;;;;;;13.77;10.70;;;3.40;80.60;;;;;;5002195;28;20216;-90
2020/12/10 04:22:58;;;;;;;14.27;11.57;;;3.30;80.80;;;;;;4969185;28;20710;-90
2020/12/10 04:25:24;;;;;;;15.47;11.43;;;3.30;81.00;;;;;;4982380;28;20187;-89
2020/12/10 04:27:49;;;;;;;15.43;11.47;;;3.20;81.00;;;;;;4983236;28;20581;-87
2020/12/10 04:30:20;;;;;;;16.23;11.93;;;3.30;80.60;;;;;;4985112;28;20210;-88
2020/12/10 04:32:50;;;;;;;13.70;12.27;;;3.30;80.00;;;;;;4987384;28;20199;-90
2020/12/10 04:35:16;;;;;;;14.20;11.73;;;3.40;79.80;;;;;;4997628;28;20190;-89
2020/12/10 04:37:41;;;;;;;12.53;11.20;;;3.30;79.00;;;;;;5005453;28;20185;-88
2020/12/10 04:40:08;;;;;;;14.27;12.60;;;3.50;79.30;;;;;;5006709;28;20759;-89
2020/12/10 04:42:35;;;;;;;13.63;12.10;;;3.50;78.80;;;;;;5006110;28;20209;-89
2020/12/10 04:45:00;;;;;;;16.87;12.60;;;3.50;78.70;;;;;;5000556;28;20251;-86
2020/12/10 04:47:28;;;;;;;14.90;11.70;;;3.50;78.50;;;;;;5021287;28;20206;-89
2020/12/10 04:49:55;;;;;;;13.03;11.00;;;3.40;79.30;;;;;;5004794;28;20232;-89
2020/12/10 04:52:22;;;;;;;14.30;12.30;;;3.40;80.20;;;;;;5006201;28;20201;-89
2020/12/10 04:54:51;;;;;;;15.50;12.43;;;3.40;80.60;;;;;;5005849;28;20286;-89
2020/12/10 04:57:18;;;;;;;14.73;11.83;;;3.30;80.30;;;;;;5008167;28;20193;-89
2020/12/10 04:59:44;;;;;;;13.60;11.47;;;3.20;81.20;;;;;;4994882;28;20557;-87
2020/12/10 05:02:11;;;;;;;13.03;11.10;;;3.30;80.60;;;;;;5005948;28;20281;-88
2020/12/10 05:04:36;;;;;;;15.00;11.83;;;3.40;80.70;;;;;;5007560;28;20324;-89
2020/12/10 05:07:02;;;;;;;13.20;11.40;;;3.40;80.30;;;;;;4989466;28;20214;-90
2020/12/10 05:09:28;;;;;;;14.37;11.70;;;3.40;80.10;;;;;;5006023;28;20209;-91
2020/12/10 05:11:54;;;;;;;13.40;10.77;;;3.50;80.60;;;;;;5010392;28;20202;-89
2020/12/10 05:14:21;;;;;;;13.27;11.70;;;3.40;80.60;;;;;;5026736;28;20184;-88
2020/12/10 05:16:46;;;;;;;14.93;12.10;;;3.30;81.20;;;;;;5026774;28;20189;-88
2020/12/10 05:19:21;;;;;;;15.53;12.23;;;3.20;81.40;;;;;;5026550;28;20268;-89
2020/12/10 05:22:13;;;;;;;14.00;11.33;;;3.10;80.80;;;;;;5027000;28;20251;-89
2020/12/10 05:24:38;;;;;;;13.97;11.27;;;3.10;80.60;;;;;;5010872;28;20190;-89
2020/12/10 05:27:23;;;;;;;13.27;11.47;;;3.10;81.00;;;;;;5022091;28;20212;-88
2020/12/10 05:29:50;;;;;;;15.50;13.80;;;3.20;80.50;;;;;;5024803;28;20241;-89
2020/12/10 05:32:32;;;;;;;15.80;12.80;;;3.10;80.50;;;;;;5027473;28;20190;-88
2020/12/10 05:34:58;;;;;;;20.60;18.50;;;3.10;80.30;;;;;;5029050;28;20192;-87
2020/12/10 05:37:30;;;;;;;15.17;13.50;;;3.00;80.80;;;;;;5029184;28;20194;-85
2020/12/10 05:40:00;;;;;;;16.57;12.50;;;3.00;81.00;;;;;;5012833;28;20189;-86
2020/12/10 05:42:42;;;;;;;15.00;12.33;;;3.10;81.00;;;;;;5004250;28;20214;-86
2020/12/10 05:45:22;;;;;;;15.57;12.13;;;3.10;80.30;;;;;;5006984;28;20530;-85
2020/12/10 05:47:54;;;;;;;16.47;13.10;;;3.10;80.30;;;;;;5006787;28;20692;-86
2020/12/10 05:50:26;;;;;;;15.10;12.27;;;3.20;79.20;;;;;;4996420;28;20186;-88
2020/12/10 05:52:54;;;;;;;14.73;13.13;;;3.20;79.00;;;;;;5022112;28;20281;-87
2020/12/10 05:55:20;;;;;;;14.20;12.80;;;3.20;79.50;;;;;;5021257;28;20189;-86
2020/12/10 05:57:46;;;;;;;14.47;12.90;;;3.30;79.40;;;;;;5025910;28;20194;-85
2020/12/10 06:00:12;;;;;;;14.23;11.87;;;3.30;79.40;;;;;;5025497;28;20185;-86
2020/12/10 06:02:40;;;;;;;13.57;11.90;;;3.30;80.50;;;;;;5024592;28;20527;-86
2020/12/10 06:05:07;;;;;;;14.10;12.53;;;3.20;81.00;;;;;;5015811;28;20561;-89
2020/12/10 06:07:32;;;;;;;13.57;11.43;;;3.30;80.90;;;;;;5024750;28;20213;-86
2020/12/10 06:09:59;;;;;;;13.63;10.40;;;3.20;81.10;;;;;;5023671;28;20193;-86
2020/12/10 06:12:25;;;;;;;12.33;10.40;;;3.30;81.70;;;;;;5025220;28;20224;-87
2020/12/10 06:15:00;;;;;;;12.93;11.57;;;3.40;81.60;;;;;;5026207;28;20181;-91
2020/12/10 06:17:26;;;;;;;13.83;11.03;;;3.30;81.80;;;;;;5040242;28;20197;-91
2020/12/10 06:19:52;;;;;;;12.13;10.83;;;3.40;81.30;;;;;;5008232;28;20200;-88
2020/12/10 06:22:25;;;;;;;12.97;11.67;;;3.50;80.90;;;;;;5025631;28;20220;-86
2020/12/10 06:24:51;;;;;;;16.20;12.87;;;3.50;80.50;;;;;;5037637;28;20209;-90
2020/12/10 06:27:31;;;;;;;17.97;14.67;;;3.50;80.60;;;;;;5026027;28;20193;-85
2020/12/10 06:30:17;;;;;;;14.83;12.77;;;3.50;79.80;;;;;;5022817;28;20192;-86
2020/12/10 06:32:53;;;;;;;16.10;12.93;;;3.50;80.20;;;;;;5018979;28;20206;-85
2020/12/10 06:35:37;;;;;;;15.57;13.23;;;3.50;78.50;;;;;;5023186;28;20300;-87
2020/12/10 06:38:07;;;;;;;15.10;12.30;;;3.50;78.50;;;;;;5032238;28;20217;-86
2020/12/10 06:40:34;;;;;;;15.03;11.93;;;3.50;79.40;;;;;;5025321;28;20221;-86
2020/12/10 06:43:00;;;;;;;17.73;12.80;;;3.30;79.50;;;;;;5025317;28;20228;-86
2020/12/10 06:45:31;;;;;;;18.97;13.43;;;3.40;79.40;;;;;;5022355;28;20216;-89
2020/12/10 06:47:58;;;;;;;16.33;13.33;;;3.50;78.00;;;;;;5023005;28;20209;-87
2020/12/10 06:50:32;;;;;;;20.63;14.33;;;3.50;78.10;;;;;;5023115;28;20204;-86
2020/12/10 06:53:19;;;;;;;14.60;11.60;;;3.50;77.60;;;;;;5025205;28;20272;-86
2020/12/10 06:55:57;;;;;;;17.70;13.13;;;3.50;78.10;;;;;;5028731;28;20188;-87
2020/12/10 06:58:39;;;;;;;13.20;10.70;;;3.50;78.30;;;;;;5041449;28;20625;-85
2020/12/10 07:01:24;;;;;;;13.13;11.23;;;3.50;78.90;;;;;;5036263;28;20222;-85
2020/12/10 07:03:56;;;;;;;13.70;11.37;;;3.50;79.20;;;;;;5013050;28;20205;-86
2020/12/10 07:06:22;;;;;;;14.97;12.20;;;3.50;76.90;;;;;;5008822;28;20288;-86
2020/12/10 07:09:17;;;;;;;12.27;9.97;;;3.40;77.20;;;;;;5002819;28;20182;-87
2020/12/10 07:11:45;;;;;;;12.90;10.73;;;3.40;77.90;;;;;;5012598;28;20256;-86
2020/12/10 07:14:30;;;;;;;13.83;11.10;;;3.40;79.10;;;;;;5024505;28;20194;-88
2020/12/10 07:16:56;;;;;;;16.60;11.37;;;3.30;79.40;;;;;;5030419;28;20198;-85
2020/12/10 07:19:22;;;;;;;13.00;10.73;;;3.30;78.60;;;;;;5015501;28;20186;-86
2020/12/10 07:21:48;;;;;;;13.87;12.47;;;3.20;78.00;;;;;;5024542;28;20222;-92
2020/12/10 07:24:13;;;;;;;14.63;12.63;;;3.20;79.00;;;;;;5051059;28;20185;-92
2020/12/10 07:26:42;;;;;;;18.03;13.60;;;3.20;78.00;;;;;;5025477;28;20202;-85
2020/12/10 07:29:07;;;;;;;12.07;10.73;;;3.20;77.80;;;;;;5014478;28;20186;-88
2020/12/10 07:31:33;;;;;;;13.03;11.70;;;3.20;77.20;;;;;;5022260;28;20212;-83
2020/12/10 07:33:59;;;;;;;16.70;12.17;;;3.20;77.10;;;;;;5024566;28;20177;-84
2020/12/10 07:36:27;;;;;;;14.27;12.77;;;3.20;77.80;;;;;;5023903;28;20205;-84
2020/12/10 07:38:53;;;;;;;21.73;18.77;;;3.10;78.70;;;;;;5023504;28;20717;-84
2020/12/10 07:41:19;;;;;;;16.60;14.90;;;3.00;78.40;;;;;;5025007;28;20201;-84
2020/12/10 07:43:52;;;;;;;15.40;11.60;;;3.00;78.40;;;;;;5039528;28;20226;-83
2020/12/10 07:46:19;;;;;;;19.73;9.97;;;3.10;79.00;;;;;;5019528;28;20214;-87
2020/12/10 07:48:48;;;;;;;12.20;10.20;;;3.00;80.00;;;;;;5021136;28;20193;-89
2020/12/10 07:51:19;;;;;;;13.43;10.70;;;3.00;78.90;;;;;;5021476;28;20564;-87
2020/12/10 07:53:45;;;;;;;16.70;14.63;;;3.00;79.90;;;;;;5013887;28;20228;-88
2020/12/10 07:56:21;;;;;;;15.27;12.67;;;3.20;78.00;;;;;;5015898;28;20205;-87
2020/12/10 07:59:01;;;;;;;16.97;13.00;;;3.20;78.50;;;;;;5004245;28;20201;-87
2020/12/10 08:01:34;;;;;;;19.97;14.23;;;3.30;77.20;;;;;;5035486;28;20213;-88
2020/12/10 08:04:10;;;;;;;13.20;11.80;;;3.30;77.70;;;;;;5017769;28;20224;-88
2020/12/10 08:06:36;;;;;;;11.10;9.23;;;3.40;77.20;;;;;;5020253;28;20201;-89
2020/12/10 08:09:29;;;;;;;13.20;10.03;;;3.40;78.00;;;;;;5018482;28;20604;-87
2020/12/10 08:11:56;;;;;;;10.23;9.13;;;3.30;77.20;;;;;;5018964;28;20644;-86
2020/12/10 08:14:29;;;;;;;11.17;9.43;;;3.30;77.20;;;;;;5035545;28;20196;-87
2020/12/10 08:16:58;;;;;;;12.03;9.23;;;3.30;77.90;;;;;;5019965;28;20188;-88
2020/12/10 08:19:30;;;;;;;10.80;8.97;;;3.30;78.10;;;;;;5020844;28;20215;-87
2020/12/10 08:21:57;;;;;;;10.57;8.73;;;3.20;78.50;;;;;;5017419;28;20229;-87
2020/12/10 08:24:41;;;;;;;12.40;10.13;;;3.20;77.70;;;;;;5020272;28;20181;-86
2020/12/10 08:27:09;;;;;;;17.03;11.17;;;3.20;78.30;;;;;;5022048;28;20273;-88
2020/12/10 08:29:38;;;;;;;15.40;10.53;;;3.20;78.90;;;;;;5023434;28;20518;-91
2020/12/10 08:32:12;;;;;;;14.17;10.07;;;3.20;78.70;;;;;;5022491;28;20205;-90
2020/12/10 08:34:39;;;;;;;14.67;11.17;;;3.30;78.00;;;;;;5022606;28;20185;-90
2020/12/10 08:37:09;;;;;;;11.43;9.97;;;3.40;77.20;;;;;;5021397;28;20263;-88
2020/12/10 08:39:39;;;;;;;13.80;11.30;;;3.40;77.50;;;;;;5023596;28;20257;-90
2020/12/10 08:42:10;;;;;;;12.07;10.23;;;3.50;75.90;;;;;;5021966;28;20707;-90
2020/12/10 08:44:51;;;;;;;13.07;10.73;;;3.50;74.70;;;;;;5019539;28;20189;-90
2020/12/10 08:47:31;;;;;;;12.20;10.43;;;3.50;74.30;;;;;;5020459;28;20193;-91
2020/12/10 08:50:23;;;;;;;13.07;10.23;;;3.60;73.70;;;;;;5019013;28;20189;-91
2020/12/10 08:52:58;;;;;;;11.00;9.03;;;3.50;73.10;;;;;;5017957;28;20264;-91
2020/12/10 08:55:24;;;;;;;11.27;10.07;;;3.40;73.40;;;;;;5019688;28;20208;-88
2020/12/10 08:57:51;;;;;;;12.90;11.27;;;3.40;74.00;;;;;;5018612;28;20588;-87
2020/12/10 09:00:18;;;;;;;10.97;9.83;;;3.30;74.10;;;;;;5012700;28;20563;-90
2020/12/10 09:03:09;;;;;;;13.50;10.37;;;3.40;75.00;;;;;;5015691;28;20201;-89
2020/12/10 09:05:36;;;;;;;13.43;12.03;;;3.40;75.00;;;;;;5019720;28;20233;-92
2020/12/10 09:08:04;;;;;;;13.73;10.50;;;3.50;74.00;;;;;;5019586;28;20213;-90
2020/12/10 09:10:30;;;;;;;14.63;11.63;;;3.60;73.20;;;;;;5022394;28;20190;-91
2020/12/10 09:12:57;;;;;;;11.77;9.97;;;3.60;72.70;;;;;;5022499;28;20201;-91
2020/12/10 09:15:41;;;;;;;13.13;11.37;;;3.60;73.50;;;;;;5022597;28;20186;-90
2020/12/10 09:18:06;;;;;;;10.97;9.77;;;3.60;72.80;;;;;;5027244;28;20186;-87
2020/12/10 09:20:32;;;;;;;12.20;10.67;;;3.60;72.90;;;;;;5023361;28;20192;-89
2020/12/10 09:22:59;;;;;;;12.43;11.10;;;3.60;72.70;;;;;;5025430;28;20209;-91
2020/12/10 09:25:40;;;;;;;12.23;10.90;;;3.60;73.30;;;;;;4993289;28;20225;-91
2020/12/10 09:28:09;;;;;;;13.50;11.37;;;3.70;73.00;;;;;;5027896;28;20201;-91
2020/12/10 09:30:44;;;;;;;14.33;11.33;;;3.70;74.00;;;;;;5025048;28;20197;-91
2020/12/10 09:33:11;;;;;;;13.73;11.17;;;3.70;73.20;;;;;;5008186;28;20201;-89
2020/12/10 09:35:36;;;;;;;12.47;9.57;;;3.60;73.30;;;;;;5024726;28;20201;-89
2020/12/10 09:38:03;;;;;;;13.27;11.20;;;3.50;74.70;;;;;;5024444;28;20267;-91
2020/12/10 09:40:30;;;;;;;12.73;11.43;;;3.60;73.70;;;;;;5026046;28;20201;-91
2020/12/10 09:42:56;;;;;;;13.57;11.43;;;3.60;74.50;;;;;;5006415;28;20193;-90
2020/12/10 09:45:23;;;;;;;14.23;11.60;;;3.70;73.90;;;;;;5024630;28;20196;-91
2020/12/10 09:47:49;;;;;;;16.43;12.57;;;3.70;74.00;;;;;;5028260;28;20268;-88
2020/12/10 09:50:23;;;;;;;13.53;12.10;;;3.70;73.30;;;;;;5017575;28;20244;-88
2020/12/10 09:52:56;;;;;;;14.83;11.93;;;3.70;73.00;;;;;;5032120;28;20201;-88
2020/12/10 09:55:59;;;;;;;14.37;12.33;;;3.80;73.50;;;;;;5032214;28;20355;-88
2020/12/10 09:58:25;;;;;;;12.70;11.33;;;3.80;73.00;;;;;;5023137;28;20226;-90
2020/12/10 10:00:59;;;;;;;12.60;10.43;;;3.80;72.80;;;;;;5035498;28;20213;-89
2020/12/10 10:03:25;;;;;;;12.90;11.03;;;3.80;73.10;;;;;;5038754;28;20194;-87
2020/12/10 10:05:53;;;;;;;11.67;9.97;;;3.80;73.90;;;;;;5023704;28;20205;-91
2020/12/10 10:08:22;;;;;;;12.47;11.17;;;3.90;73.30;;;;;;5024655;28;20265;-91
2020/12/10 10:10:48;;;;;;;12.13;10.77;;;3.90;72.10;;;;;;5025894;28;20542;-90
2020/12/10 10:13:14;;;;;;;18.97;11.87;;;3.90;73.10;;;;;;5008154;28;20178;-91
2020/12/10 10:15:41;;;;;;;14.13;11.40;;;4.00;72.50;;;;;;5008653;28;20637;-90
2020/12/10 10:18:08;;;;;;;13.73;12.13;;;4.00;72.10;;;;;;5022320;28;20180;-91
2020/12/10 10:24:12;;;;;;;13.63;11.13;;;4.10;72.50;;;;;;5025063;28;20264;-90
2020/12/10 10:26:46;;;;;;;12.80;10.57;;;4.00;72.10;;;;;;5017991;28;20218;-90
2020/12/10 10:29:56;;;;;;;31.13;13.00;;;4.00;72.50;;;;;;5020952;28;20190;-91
2020/12/10 10:35:47;;;;;;;13.17;10.57;;;4.00;72.50;;;;;;5021127;28;20229;-90
2020/12/10 10:38:13;;;;;;;12.43;10.30;;;4.00;72.70;;;;;;5021367;28;20186;-91
2020/12/10 10:40:39;;;;;;;12.80;10.47;;;4.10;72.70;;;;;;5025337;28;20193;-91
2020/12/10 10:43:45;;;;;;;14.27;11.10;;;4.10;72.50;;;;;;5033156;28;20244;-91
2020/12/10 10:46:33;;;;;;;15.50;12.33;;;4.20;72.30;;;;;;5019484;28;20582;-90
2020/12/10 10:48:59;;;;;;;15.17;13.53;;;4.20;71.50;;;;;;5037684;28;20193;-92
2020/12/10 10:51:26;;;;;;;14.33;12.83;;;4.20;71.60;;;;;;5024549;28;20194;-91
2020/12/10 10:53:52;;;;;;;13.07;11.73;;;4.20;71.90;;;;;;5023546;28;20321;-92
2020/12/10 10:56:24;;;;;;;19.83;12.97;;;4.20;72.00;;;;;;5024444;28;20205;-90
2020/12/10 10:58:51;;;;;;;15.90;12.53;;;4.20;72.10;;;;;;5024059;28;20288;-90
2020/12/10 11:01:37;;;;;;;15.83;12.77;;;4.10;72.80;;;;;;5023280;28;20217;-90
2020/12/10 11:04:04;;;;;;;17.20;12.30;;;4.10;72.30;;;;;;5014374;28;20292;-92
2020/12/10 11:06:29;;;;;;;15.20;12.27;;;4.20;72.60;;;;;;5000808;28;20226;-90
2020/12/10 11:08:55;;;;;;;17.87;15.63;;;4.20;73.00;;;;;;5039339;28;20232;-89
2020/12/10 11:11:36;;;;;;;17.00;13.87;;;4.30;72.70;;;;;;5006439;28;20233;-89
2020/12/10 11:14:05;;;;;;;19.87;15.60;;;4.40;72.60;;;;;;5026189;28;20174;-91
2020/12/10 11:16:30;;;;;;;18.33;13.13;;;4.40;72.20;;;;;;5007000;28;20213;-91
2020/12/10 11:18:56;;;;;;;16.03;13.23;;;4.40;72.00;;;;;;5025033;28;20202;-89
2020/12/10 11:21:27;;;;;;;17.03;14.53;;;4.40;72.10;;;;;;5015537;28;20218;-90
2020/12/10 11:23:53;;;;;;;16.53;13.13;;;4.40;72.40;;;;;;5020120;28;20217;-92
2020/12/10 11:26:23;;;;;;;17.17;14.30;;;4.40;72.50;;;;;;5023218;28;20217;-91
2020/12/10 11:28:49;;;;;;;15.93;14.17;;;4.30;72.20;;;;;;5025338;28;20181;-88
2020/12/10 11:31:17;;;;;;;13.87;11.63;;;4.30;72.40;;;;;;5038398;28;20264;-90
2020/12/10 11:33:43;;;;;;;17.03;12.37;;;4.30;72.90;;;;;;5022390;28;20225;-91
2020/12/10 11:36:10;;;;;;;17.83;13.53;;;4.30;72.80;;;;;;5038263;28;20221;-91
2020/12/10 11:38:36;;;;;;;14.90;12.27;;;4.30;72.90;;;;;;5022835;28;20607;-91
2020/12/10 11:41:01;;;;;;;17.47;13.87;;;4.30;72.60;;;;;;5024035;28;20216;-93
2020/12/10 11:43:29;;;;;;;18.50;14.70;;;4.20;72.70;;;;;;5003180;28;20201;-91
2020/12/10 11:45:55;;;;;;;16.23;13.17;;;4.20;72.40;;;;;;5021214;28;20214;-92
2020/12/10 11:48:21;;;;;;;17.30;13.20;;;4.20;72.60;;;;;;5005866;28;20186;-91
2020/12/10 11:50:48;;;;;;;15.13;13.27;;;4.20;72.80;;;;;;5016395;28;20185;-91
2020/12/10 11:53:17;;;;;;;14.80;12.20;;;4.20;73.00;;;;;;5018393;28;20205;-89
2020/12/10 11:55:43;;;;;;;16.87;13.23;;;4.20;72.90;;;;;;5026456;28;20257;-91
2020/12/10 11:58:09;;;;;;;14.00;11.93;;;4.10;73.00;;;;;;5022567;28;20185;-91
2020/12/10 12:00:55;;;;;;;16.70;13.20;;;4.10;73.50;;;;;;5009169;28;20247;-91
2020/12/10 12:03:22;;;;;;;15.00;12.43;;;4.20;73.50;;;;;;5022873;28;20209;-88
2020/12/10 12:06:08;;;;;;;14.47;12.33;;;4.20;73.90;;;;;;5023136;28;20204;-90
2020/12/10 12:08:51;;;;;;;15.07;12.13;;;4.20;73.60;;;;;;5020894;28;20197;-90
2020/12/10 12:11:23;;;;;;;15.50;12.00;;;4.30;73.30;;;;;;5020474;28;20228;-91
2020/12/10 12:14:09;;;;;;;14.67;12.53;;;4.40;72.90;;;;;;5020132;28;20272;-91
2020/12/10 12:16:34;;;;;;;17.53;13.43;;;4.40;73.20;;;;;;5038933;28;20217;-90
2020/12/10 12:19:00;;;;;;;22.83;17.53;;;4.40;72.90;;;;;;5021378;28;20596;-91
2020/12/10 12:21:27;;;;;;;27.97;20.70;;;4.50;72.70;;;;;;5022376;28;20682;-91
2020/12/10 12:23:56;;;;;;;21.77;17.20;;;4.50;72.50;;;;;;5019518;28;20185;-90
2020/12/10 12:26:29;;;;;;;17.23;13.30;;;4.40;72.20;;;;;;5022017;28;20217;-90
2020/12/10 12:28:55;;;;;;;18.53;13.80;;;4.40;72.90;;;;;;5034176;28;20189;-92
2020/12/10 12:31:36;;;;;;;21.57;15.40;;;4.40;72.80;;;;;;5033017;28;20206;-87
2020/12/10 12:34:01;;;;;;;33.47;20.43;;;4.30;73.10;;;;;;5027046;28;20181;-90
2020/12/10 12:36:30;;;;;;;20.23;15.03;;;4.30;73.80;;;;;;5025125;28;20254;-91
2020/12/10 12:38:56;;;;;;;18.23;14.40;;;4.30;73.80;;;;;;5030426;28;20186;-86
2020/12/10 12:41:27;;;;;;;23.13;15.73;;;4.40;73.20;;;;;;5036378;28;20228;-85
2020/12/10 12:43:56;;;;;;;20.30;14.83;;;4.40;73.30;;;;;;5031626;28;20188;-91
2020/12/10 12:46:22;;;;;;;21.07;15.03;;;4.30;73.10;;;;;;5024023;28;20215;-92
2020/12/10 12:48:52;;;;;;;17.60;14.07;;;4.30;73.80;;;;;;5008092;28;20193;-89
2020/12/10 12:51:24;;;;;;;19.00;14.20;;;4.20;74.00;;;;;;5027887;28;20201;-89
2020/12/10 12:53:52;;;;;;;23.63;19.37;;;4.30;73.60;;;;;;5036014;28;20277;-90
2020/12/10 12:56:21;;;;;;;23.57;17.63;;;4.30;73.40;;;;;;5027340;28;20216;-89